DLH455 YPCC-YPXM
Flight info
| Callsign | DLH455 |
|---|---|
| Flight time | 2h 5m |
| Altitude | 41000 |
| Route | CC G200 XMX |
| Aircraft | A359/H-SDE2E3GHIJ3J4J5LM1ORWXY/LB1D1 |
Departure
| Time | 2026-04-28 07:45 |
|---|---|
| Airport | Cocos (Keeling) Islands Airport (YPCC) |
Arrival
| Time | 2026-04-28 09:50 |
|---|---|
| Airport | Christmas Island International Airport (YPXM) |
| Time | Latitude | Longitude | Altitude | Speed | Heading |
|---|---|---|---|---|---|
| 2026-04-28 07:39 | -12.18479 | 96.82820 | 45 ft | 0 kts | 137° |
| 2026-04-28 07:40 | -12.18486 | 96.82847 | 21 ft | 5 kts | 80° |
| 2026-04-28 07:41 | -12.18455 | 96.82859 | 17 ft | 11 kts | 12° |
| 2026-04-28 07:41 | -12.18378 | 96.82890 | 22 ft | 6 kts | 26° |
| 2026-04-28 07:41 | -12.18321 | 96.82866 | 19 ft | 15 kts | 319° |
| 2026-04-28 07:41 | -12.18235 | 96.82809 | 21 ft | 14 kts | 330° |
| 2026-04-28 07:42 | -12.18136 | 96.82752 | 20 ft | 17 kts | 330° |
| 2026-04-28 07:42 | -12.18109 | 96.82727 | 19 ft | 1 kts | 342° |
| 2026-04-28 07:42 | -12.18101 | 96.82733 | 20 ft | 1 kts | 39° |
| 2026-04-28 07:42 | -12.18100 | 96.82740 | 19 ft | 2 kts | 78° |
| 2026-04-28 07:43 | -12.18117 | 96.82754 | 20 ft | 7 kts | 144° |
| 2026-04-28 07:43 | -12.18191 | 96.82803 | 22 ft | 15 kts | 148° |
| 2026-04-28 07:43 | -12.18232 | 96.82829 | 20 ft | 0 kts | 149° |
| 2026-04-28 07:44 | -12.18272 | 96.82854 | 19 ft | 39 kts | 150° |
| 2026-04-28 07:44 | -12.18831 | 96.83191 | 18 ft | 142 kts | 149° |
| 2026-04-28 07:45 | -12.19831 | 96.83816 | 619 ft | 181 kts | 145° |
| 2026-04-28 07:45 | -12.20928 | 96.84494 | 1789 ft | 194 kts | 149° |
| 2026-04-28 07:45 | -12.21871 | 96.85477 | 2602 ft | 202 kts | 114° |
| 2026-04-28 07:45 | -12.21950 | 96.86949 | 3048 ft | 223 kts | 74° |
| 2026-04-28 07:46 | -12.20982 | 96.88273 | 3417 ft | 251 kts | 36° |
| 2026-04-28 07:46 | -12.19275 | 96.88773 | 4053 ft | 267 kts | 1° |
| 2026-04-28 07:46 | -12.17505 | 96.88168 | 4819 ft | 277 kts | 326° |
| 2026-04-28 07:46 | -12.16291 | 96.86632 | 5562 ft | 286 kts | 293° |
| 2026-04-28 07:47 | -12.16049 | 96.84617 | 6351 ft | 290 kts | 260° |
| 2026-04-28 07:47 | -12.16883 | 96.82769 | 7162 ft | 289 kts | 228° |
| 2026-04-28 07:47 | -12.18525 | 96.81649 | 8010 ft | 288 kts | 196° |
| 2026-04-28 07:47 | -12.20503 | 96.81570 | 8842 ft | 288 kts | 164° |
| 2026-04-28 07:48 | -12.22220 | 96.82537 | 9630 ft | 290 kts | 134° |
| 2026-04-28 07:48 | -12.23241 | 96.84335 | 10281 ft | 297 kts | 104° |
| 2026-04-28 07:48 | -12.23279 | 96.86467 | 10577 ft | 318 kts | 76° |
| 2026-04-28 07:48 | -12.22253 | 96.88531 | 10861 ft | 337 kts | 49° |
| 2026-04-28 07:49 | -12.20348 | 96.89968 | 11354 ft | 349 kts | 24° |
| 2026-04-28 07:49 | -12.17959 | 96.90455 | 11987 ft | 356 kts | 360° |
| 2026-04-28 07:49 | -12.15543 | 96.89897 | 12654 ft | 362 kts | 336° |
| 2026-04-28 07:49 | -12.13500 | 96.88379 | 13316 ft | 368 kts | 313° |
| 2026-04-28 07:50 | -12.12165 | 96.86127 | 13893 ft | 375 kts | 290° |
| 2026-04-28 07:50 | -12.11774 | 96.83529 | 14486 ft | 377 kts | 266° |
| 2026-04-28 07:50 | -12.12379 | 96.80941 | 15170 ft | 377 kts | 245° |
| 2026-04-28 07:50 | -12.13883 | 96.78761 | 15772 ft | 379 kts | 223° |
| 2026-04-28 07:51 | -12.16084 | 96.77300 | 16365 ft | 381 kts | 201° |
| 2026-04-28 07:51 | -12.18677 | 96.76766 | 16966 ft | 383 kts | 180° |
| 2026-04-28 07:51 | -12.21304 | 96.77240 | 17559 ft | 386 kts | 159° |
| 2026-04-28 07:51 | -12.23601 | 96.78663 | 18148 ft | 389 kts | 138° |
| 2026-04-28 07:52 | -12.25263 | 96.80840 | 18624 ft | 393 kts | 117° |
| 2026-04-28 07:52 | -12.26081 | 96.83508 | 19089 ft | 397 kts | 97° |
| 2026-04-28 07:52 | -12.25941 | 96.86329 | 19564 ft | 401 kts | 77° |
| 2026-04-28 07:52 | -12.24873 | 96.88928 | 20051 ft | 405 kts | 57° |
| 2026-04-28 07:53 | -12.22974 | 96.91054 | 20550 ft | 409 kts | 37° |
| 2026-04-28 07:53 | -12.20471 | 96.92425 | 21047 ft | 412 kts | 18° |
| 2026-04-28 07:53 | -12.17639 | 96.92881 | 21558 ft | 415 kts | 359° |
| 2026-04-28 07:53 | -12.14795 | 96.92365 | 22064 ft | 417 kts | 340° |
| 2026-04-28 07:54 | -12.12254 | 96.90933 | 22551 ft | 420 kts | 321° |
| 2026-04-28 07:54 | -12.10282 | 96.88737 | 23036 ft | 423 kts | 302° |
| 2026-04-28 07:54 | -12.09087 | 96.85999 | 23521 ft | 425 kts | 284° |
| 2026-04-28 07:54 | -12.08781 | 96.83000 | 23883 ft | 428 kts | 266° |
| 2026-04-28 07:55 | -12.09409 | 96.80029 | 24291 ft | 431 kts | 248° |
| 2026-04-28 07:55 | -12.10911 | 96.77382 | 24728 ft | 433 kts | 231° |
| 2026-04-28 07:55 | -12.13111 | 96.75336 | 25153 ft | 436 kts | 213° |
| 2026-04-28 07:55 | -12.15861 | 96.74037 | 25657 ft | 438 kts | 196° |
| 2026-04-28 07:56 | -12.18885 | 96.73630 | 26158 ft | 441 kts | 179° |
| 2026-04-28 07:56 | -12.21917 | 96.74152 | 26620 ft | 445 kts | 162° |
| 2026-04-28 07:56 | -12.24691 | 96.75567 | 27105 ft | 449 kts | 145° |
| 2026-04-28 07:56 | -12.26969 | 96.77750 | 27585 ft | 453 kts | 129° |
| 2026-04-28 07:57 | -12.28564 | 96.80540 | 28032 ft | 458 kts | 112° |
| 2026-04-28 07:57 | -12.29331 | 96.83709 | 28494 ft | 463 kts | 96° |
| 2026-04-28 07:57 | -12.29201 | 96.87013 | 28921 ft | 468 kts | 80° |
| 2026-04-28 07:57 | -12.28178 | 96.90183 | 29320 ft | 474 kts | 64° |
| 2026-04-28 07:58 | -12.26351 | 96.92942 | 29749 ft | 478 kts | 48° |
| 2026-04-28 07:58 | -12.23813 | 96.95149 | 30116 ft | 483 kts | 32° |
| 2026-04-28 07:58 | -12.20757 | 96.96600 | 30415 ft | 487 kts | 17° |
| 2026-04-28 07:58 | -12.17415 | 96.97158 | 30799 ft | 488 kts | 1° |
| 2026-04-28 07:59 | -12.14033 | 96.96797 | 31125 ft | 490 kts | 345° |
| 2026-04-28 07:59 | -12.10868 | 96.95527 | 31495 ft | 490 kts | 329° |
| 2026-04-28 07:59 | -12.08140 | 96.93459 | 31797 ft | 490 kts | 314° |
| 2026-04-28 07:59 | -12.06046 | 96.90721 | 32138 ft | 489 kts | 298° |
| 2026-04-28 08:00 | -12.04741 | 96.87530 | 32463 ft | 488 kts | 283° |
| 2026-04-28 08:00 | -12.04315 | 96.84097 | 32797 ft | 487 kts | 268° |
| 2026-04-28 08:00 | -12.04785 | 96.80724 | 33088 ft | 486 kts | 252° |
| 2026-04-28 08:00 | -12.06126 | 96.77573 | 33379 ft | 485 kts | 237° |
| 2026-04-28 08:01 | -12.08244 | 96.74901 | 33672 ft | 485 kts | 222° |
| 2026-04-28 08:01 | -12.10982 | 96.72902 | 33936 ft | 486 kts | 207° |
| 2026-04-28 08:01 | -12.14152 | 96.71718 | 34171 ft | 488 kts | 192° |
| 2026-04-28 08:01 | -12.17529 | 96.71443 | 34447 ft | 489 kts | 176° |
| 2026-04-28 08:02 | -12.20883 | 96.72109 | 34778 ft | 490 kts | 161° |
| 2026-04-28 08:02 | -12.23934 | 96.73656 | 35119 ft | 491 kts | 146° |
| 2026-04-28 08:02 | -12.26487 | 96.75981 | 35457 ft | 493 kts | 131° |
| 2026-04-28 08:02 | -12.28339 | 96.78876 | 35744 ft | 496 kts | 116° |
| 2026-04-28 08:03 | -12.29423 | 96.82272 | 36043 ft | 499 kts | 101° |
| 2026-04-28 08:03 | -12.29599 | 96.85768 | 36340 ft | 500 kts | 86° |
| 2026-04-28 08:03 | -12.28884 | 96.89251 | 36569 ft | 503 kts | 70° |
| 2026-04-28 08:03 | -12.27300 | 96.92429 | 36904 ft | 503 kts | 55° |
| 2026-04-28 08:04 | -12.24966 | 96.95083 | 37239 ft | 502 kts | 39° |
| 2026-04-28 08:04 | -12.22056 | 96.97015 | 37582 ft | 499 kts | 24° |
| 2026-04-28 08:04 | -12.18766 | 96.98107 | 37926 ft | 496 kts | 9° |
| 2026-04-28 08:04 | -12.15325 | 96.98284 | 38224 ft | 493 kts | 354° |
| 2026-04-28 08:05 | -12.11987 | 96.97534 | 38528 ft | 490 kts | 338° |
| 2026-04-28 08:05 | -12.08992 | 96.95924 | 38773 ft | 486 kts | 323° |
| 2026-04-28 08:05 | -12.06543 | 96.93574 | 39012 ft | 482 kts | 307° |
| 2026-04-28 08:05 | -12.04822 | 96.90698 | 39174 ft | 481 kts | 292° |
| 2026-04-28 08:06 | -12.03913 | 96.87413 | 39374 ft | 479 kts | 276° |
| 2026-04-28 08:06 | -12.03929 | 96.84041 | 39713 ft | 475 kts | 261° |
| 2026-04-28 08:06 | -12.04839 | 96.80808 | 39980 ft | 473 kts | 246° |
| 2026-04-28 08:06 | -12.06561 | 96.77947 | 40071 ft | 476 kts | 230° |
| 2026-04-28 08:07 | -12.09004 | 96.75663 | 40232 ft | 479 kts | 214° |
| 2026-04-28 08:07 | -12.11980 | 96.74130 | 40369 ft | 481 kts | 199° |
| 2026-04-28 08:07 | -12.15279 | 96.73469 | 40503 ft | 485 kts | 184° |
| 2026-04-28 08:07 | -12.18639 | 96.73739 | 40663 ft | 487 kts | 168° |
| 2026-04-28 08:08 | -12.21789 | 96.74897 | 40798 ft | 490 kts | 153° |
| 2026-04-28 08:08 | -12.24619 | 96.76920 | 40857 ft | 493 kts | 137° |
| 2026-04-28 08:08 | -12.26790 | 96.79578 | 40857 ft | 495 kts | 122° |
| 2026-04-28 08:08 | -12.28224 | 96.82761 | 40855 ft | 495 kts | 106° |
| 2026-04-28 08:09 | -12.28789 | 96.86218 | 40855 ft | 494 kts | 90° |
| 2026-04-28 08:09 | -12.28445 | 96.89707 | 40861 ft | 494 kts | 75° |
| 2026-04-28 08:09 | -12.27220 | 96.92970 | 40860 ft | 492 kts | 59° |
| 2026-04-28 08:09 | -12.25207 | 96.95771 | 40857 ft | 490 kts | 44° |
| 2026-04-28 08:10 | -12.22547 | 96.97919 | 40860 ft | 487 kts | 28° |
| 2026-04-28 08:10 | -12.20529 | 96.98901 | 40860 ft | 484 kts | 18° |
| 2026-04-28 08:10 | -12.17258 | 96.99645 | 40859 ft | 481 kts | 2° |
| 2026-04-28 08:10 | -12.13936 | 96.99460 | 40857 ft | 478 kts | 346° |
| 2026-04-28 08:11 | -12.10804 | 96.98364 | 40860 ft | 474 kts | 331° |
| 2026-04-28 08:11 | -12.08107 | 96.96449 | 40861 ft | 472 kts | 315° |
| 2026-04-28 08:11 | -12.06045 | 96.93869 | 40860 ft | 470 kts | 300° |
| 2026-04-28 08:11 | -12.04756 | 96.90800 | 40860 ft | 470 kts | 284° |
| 2026-04-28 08:12 | -12.04352 | 96.87499 | 40857 ft | 470 kts | 268° |
| 2026-04-28 08:12 | -12.05211 | 96.83181 | 40859 ft | 471 kts | 248° |
| 2026-04-28 08:12 | -12.06213 | 96.81206 | 40857 ft | 473 kts | 237° |
| 2026-04-28 08:12 | -12.08355 | 96.78660 | 40857 ft | 476 kts | 221° |
| 2026-04-28 08:13 | -12.11124 | 96.76788 | 40853 ft | 479 kts | 206° |
| 2026-04-28 08:13 | -12.14297 | 96.75751 | 40856 ft | 482 kts | 190° |
| 2026-04-28 08:13 | -12.17654 | 96.75622 | 40852 ft | 485 kts | 174° |
| 2026-04-28 08:13 | -12.20940 | 96.76420 | 40855 ft | 489 kts | 159° |
| 2026-04-28 08:14 | -12.23927 | 96.78098 | 40856 ft | 491 kts | 143° |
| 2026-04-28 08:14 | -12.26382 | 96.80531 | 40856 ft | 493 kts | 128° |
| 2026-04-28 08:14 | -12.28129 | 96.83551 | 40857 ft | 495 kts | 112° |
| 2026-04-28 08:14 | -12.29038 | 96.86932 | 40859 ft | 495 kts | 97° |
| 2026-04-28 08:15 | -12.29052 | 96.90401 | 40867 ft | 494 kts | 81° |
| 2026-04-28 08:15 | -12.28168 | 96.93794 | 40854 ft | 493 kts | 65° |
| 2026-04-28 08:15 | -12.26448 | 96.96809 | 40860 ft | 491 kts | 50° |
| 2026-04-28 08:15 | -12.24019 | 96.99241 | 40858 ft | 488 kts | 34° |
| 2026-04-28 08:16 | -12.21069 | 97.00909 | 40862 ft | 485 kts | 19° |
| 2026-04-28 08:16 | -12.17807 | 97.01706 | 40862 ft | 481 kts | 3° |
| 2026-04-28 08:16 | -12.14479 | 97.01574 | 40861 ft | 478 kts | 347° |
| 2026-04-28 08:16 | -12.11334 | 97.00530 | 40863 ft | 475 kts | 332° |
| 2026-04-28 08:17 | -12.08605 | 96.98660 | 40860 ft | 472 kts | 316° |
| 2026-04-28 08:17 | -12.06518 | 96.96143 | 40860 ft | 471 kts | 301° |
| 2026-04-28 08:17 | -12.05170 | 96.93101 | 40860 ft | 471 kts | 285° |
| 2026-04-28 08:17 | -12.04699 | 96.89805 | 40859 ft | 471 kts | 269° |
| 2026-04-28 08:18 | -12.05139 | 96.86485 | 40863 ft | 471 kts | 254° |
| 2026-04-28 08:18 | -12.06459 | 96.83422 | 40860 ft | 473 kts | 238° |
| 2026-04-28 08:18 | -12.08562 | 96.80836 | 40858 ft | 476 kts | 222° |
| 2026-04-28 08:18 | -12.11290 | 96.78925 | 40856 ft | 479 kts | 207° |
| 2026-04-28 08:19 | -12.14422 | 96.77838 | 40858 ft | 482 kts | 191° |
| 2026-04-28 08:19 | -12.17783 | 96.77646 | 40855 ft | 485 kts | 175° |
| 2026-04-28 08:19 | -12.21083 | 96.78384 | 40856 ft | 489 kts | 160° |
| 2026-04-28 08:19 | -12.24090 | 96.80000 | 40856 ft | 491 kts | 144° |
| 2026-04-28 08:20 | -12.26587 | 96.82389 | 40856 ft | 493 kts | 129° |
| 2026-04-28 08:20 | -12.28362 | 96.85329 | 40857 ft | 494 kts | 113° |
| 2026-04-28 08:20 | -12.29335 | 96.88685 | 40860 ft | 494 kts | 98° |
| 2026-04-28 08:20 | -12.29413 | 96.92187 | 40855 ft | 494 kts | 82° |
| 2026-04-28 08:21 | -12.28587 | 96.95583 | 40858 ft | 493 kts | 66° |
| 2026-04-28 08:21 | -12.26895 | 96.98664 | 40862 ft | 491 kts | 51° |
| 2026-04-28 08:21 | -12.24537 | 97.01105 | 40862 ft | 488 kts | 35° |
| 2026-04-28 08:21 | -12.21611 | 97.02833 | 40861 ft | 485 kts | 20° |
| 2026-04-28 08:22 | -12.18367 | 97.03691 | 40869 ft | 481 kts | 4° |
| 2026-04-28 08:22 | -12.15014 | 97.03619 | 40862 ft | 478 kts | 348° |
| 2026-04-28 08:22 | -12.11855 | 97.02633 | 40872 ft | 475 kts | 333° |
| 2026-04-28 08:22 | -12.09093 | 97.00813 | 40858 ft | 472 kts | 317° |
| 2026-04-28 08:23 | -12.06940 | 96.98300 | 40861 ft | 471 kts | 302° |
| 2026-04-28 08:23 | -12.05560 | 96.95319 | 40861 ft | 470 kts | 286° |
| 2026-04-28 08:23 | -12.05029 | 96.92028 | 40860 ft | 470 kts | 270° |
| 2026-04-28 08:23 | -12.05411 | 96.88707 | 40856 ft | 471 kts | 255° |
| 2026-04-28 08:24 | -12.06678 | 96.85621 | 40856 ft | 473 kts | 239° |
| 2026-04-28 08:24 | -12.08730 | 96.83003 | 40857 ft | 475 kts | 224° |
| 2026-04-28 08:24 | -12.11428 | 96.81040 | 40857 ft | 478 kts | 208° |
| 2026-04-28 08:24 | -12.14559 | 96.79894 | 40858 ft | 482 kts | 192° |
| 2026-04-28 08:25 | -12.17870 | 96.79646 | 40854 ft | 485 kts | 176° |
| 2026-04-28 08:25 | -12.21182 | 96.80319 | 40855 ft | 488 kts | 161° |
| 2026-04-28 08:25 | -12.24224 | 96.81880 | 40856 ft | 491 kts | 145° |
| 2026-04-28 08:26 | -12.28604 | 96.87157 | 40871 ft | 493 kts | 114° |
| 2026-04-28 08:26 | -12.29629 | 96.90496 | 40858 ft | 494 kts | 99° |
| 2026-04-28 08:26 | -12.29758 | 96.93998 | 40856 ft | 494 kts | 83° |
| 2026-04-28 08:26 | -12.28984 | 96.97407 | 40858 ft | 493 kts | 67° |
| 2026-04-28 08:27 | -12.27359 | 97.00485 | 40862 ft | 491 kts | 52° |
| 2026-04-28 08:27 | -12.25039 | 97.02972 | 40864 ft | 488 kts | 36° |
| 2026-04-28 08:27 | -12.22140 | 97.04753 | 40862 ft | 485 kts | 21° |
| 2026-04-28 08:27 | -12.18910 | 97.05669 | 40869 ft | 482 kts | 5° |
| 2026-04-28 08:28 | -12.15575 | 97.05663 | 40865 ft | 478 kts | 349° |
| 2026-04-28 08:28 | -12.12390 | 97.04740 | 40864 ft | 475 kts | 334° |
| 2026-04-28 08:28 | -12.09591 | 97.02974 | 40862 ft | 473 kts | 318° |
| 2026-04-28 08:28 | -12.07406 | 97.00533 | 40861 ft | 471 kts | 303° |
| 2026-04-28 08:29 | -12.05949 | 96.97550 | 40861 ft | 469 kts | 287° |
| 2026-04-28 08:29 | -12.05361 | 96.94286 | 40858 ft | 469 kts | 271° |
| 2026-04-28 08:29 | -12.05683 | 96.90962 | 40869 ft | 471 kts | 256° |
| 2026-04-28 08:29 | -12.06899 | 96.87846 | 40858 ft | 473 kts | 240° |
| 2026-04-28 08:30 | -12.08908 | 96.85194 | 40868 ft | 475 kts | 224° |
| 2026-04-28 08:30 | -12.11571 | 96.83187 | 40854 ft | 478 kts | 209° |
| 2026-04-28 08:30 | -12.14650 | 96.81996 | 40855 ft | 481 kts | 193° |
| 2026-04-28 08:30 | -12.17992 | 96.81686 | 40873 ft | 485 kts | 178° |
| 2026-04-28 08:31 | -12.21313 | 96.82304 | 40858 ft | 488 kts | 162° |
| 2026-04-28 08:31 | -12.24371 | 96.83811 | 40857 ft | 491 kts | 146° |
| 2026-04-28 08:31 | -12.26943 | 96.86102 | 40853 ft | 493 kts | 131° |
| 2026-04-28 08:31 | -12.28839 | 96.89018 | 40854 ft | 494 kts | 115° |
| 2026-04-28 08:32 | -12.29919 | 96.92353 | 40856 ft | 494 kts | 99° |
| 2026-04-28 08:32 | -12.30103 | 96.95854 | 40860 ft | 495 kts | 84° |
| 2026-04-28 08:32 | -12.29405 | 96.99281 | 40876 ft | 493 kts | 71° |
| 2026-04-28 08:33 | -12.27749 | 97.06122 | 40870 ft | 497 kts | 77° |
| 2026-04-28 08:33 | -12.26269 | 97.13001 | 40874 ft | 497 kts | 77° |
| 2026-04-28 08:34 | -12.24741 | 97.19910 | 40874 ft | 497 kts | 76° |
| 2026-04-28 08:34 | -12.23172 | 97.26801 | 40871 ft | 497 kts | 76° |
| 2026-04-28 08:35 | -12.21588 | 97.33681 | 40871 ft | 497 kts | 76° |
| 2026-04-28 08:35 | -12.19997 | 97.40582 | 40870 ft | 497 kts | 76° |
| 2026-04-28 08:36 | -12.18421 | 97.47420 | 40873 ft | 497 kts | 76° |
| 2026-04-28 08:36 | -12.16833 | 97.54306 | 40877 ft | 497 kts | 76° |
| 2026-04-28 08:37 | -12.15243 | 97.61190 | 40878 ft | 497 kts | 76° |
| 2026-04-28 08:37 | -12.13652 | 97.68072 | 40865 ft | 497 kts | 76° |
| 2026-04-28 08:38 | -12.12060 | 97.74953 | 40869 ft | 497 kts | 76° |
| 2026-04-28 08:38 | -12.10465 | 97.81834 | 40872 ft | 497 kts | 76° |
| 2026-04-28 08:39 | -12.08869 | 97.88716 | 40877 ft | 497 kts | 76° |
| 2026-04-28 08:39 | -12.07272 | 97.95592 | 40865 ft | 497 kts | 76° |
| 2026-04-28 08:40 | -12.05682 | 98.02425 | 40867 ft | 498 kts | 76° |
| 2026-04-28 08:40 | -12.04077 | 98.09322 | 40867 ft | 498 kts | 76° |
| 2026-04-28 08:41 | -12.02472 | 98.16206 | 40874 ft | 498 kts | 76° |
| 2026-04-28 08:41 | -12.00866 | 98.23090 | 40867 ft | 498 kts | 76° |
| 2026-04-28 08:42 | -11.99267 | 98.29935 | 40867 ft | 498 kts | 76° |
| 2026-04-28 08:42 | -11.97655 | 98.36823 | 40863 ft | 498 kts | 76° |
| 2026-04-28 08:43 | -11.96040 | 98.43720 | 40864 ft | 499 kts | 76° |
| 2026-04-28 08:43 | -11.94424 | 98.50615 | 40874 ft | 499 kts | 76° |
| 2026-04-28 08:44 | -11.92804 | 98.57515 | 40865 ft | 499 kts | 76° |
| 2026-04-28 08:44 | -11.91185 | 98.64406 | 40861 ft | 499 kts | 76° |
| 2026-04-28 08:45 | -11.89574 | 98.71255 | 40856 ft | 498 kts | 76° |
| 2026-04-28 08:45 | -11.87953 | 98.78138 | 40866 ft | 499 kts | 76° |
| 2026-04-28 08:46 | -11.86327 | 98.85030 | 40870 ft | 499 kts | 76° |
| 2026-04-28 08:46 | -11.84701 | 98.91922 | 40859 ft | 499 kts | 76° |
| 2026-04-28 08:47 | -11.83072 | 98.98813 | 40858 ft | 499 kts | 76° |
| 2026-04-28 08:47 | -11.81442 | 99.05703 | 40867 ft | 499 kts | 76° |
| 2026-04-28 08:48 | -11.79818 | 99.12556 | 40874 ft | 499 kts | 76° |
| 2026-04-28 08:48 | -11.78182 | 99.19458 | 40864 ft | 499 kts | 76° |
| 2026-04-28 08:49 | -11.76553 | 99.26320 | 40858 ft | 499 kts | 76° |
| 2026-04-28 08:49 | -11.74916 | 99.33205 | 40866 ft | 499 kts | 76° |
| 2026-04-28 08:50 | -11.73274 | 99.40104 | 40863 ft | 499 kts | 76° |
| 2026-04-28 08:50 | -11.71642 | 99.46958 | 40851 ft | 499 kts | 76° |
| 2026-04-28 08:51 | -11.69996 | 99.53858 | 40849 ft | 500 kts | 76° |
| 2026-04-28 08:51 | -11.68351 | 99.60749 | 40854 ft | 500 kts | 76° |
| 2026-04-28 08:52 | -11.66703 | 99.67644 | 40854 ft | 500 kts | 76° |
| 2026-04-28 08:52 | -11.65055 | 99.74530 | 40847 ft | 500 kts | 76° |
| 2026-04-28 08:53 | -11.63405 | 99.81418 | 40848 ft | 500 kts | 76° |
| 2026-04-28 08:53 | -11.61763 | 99.88264 | 40848 ft | 499 kts | 76° |
| 2026-04-28 08:54 | -11.60100 | 99.95190 | 40860 ft | 499 kts | 76° |
| 2026-04-28 08:54 | -11.58456 | 100.02031 | 40858 ft | 499 kts | 76° |
| 2026-04-28 08:55 | -11.56798 | 100.08920 | 40849 ft | 499 kts | 76° |
| 2026-04-28 08:55 | -11.55139 | 100.15809 | 40852 ft | 500 kts | 76° |
| 2026-04-28 08:56 | -11.53479 | 100.22694 | 40849 ft | 499 kts | 76° |
| 2026-04-28 08:56 | -11.52098 | 100.28415 | 40857 ft | 499 kts | 76° |
| 2026-04-28 08:57 | -11.50435 | 100.35295 | 40859 ft | 499 kts | 76° |
| 2026-04-28 08:57 | -11.48772 | 100.42171 | 40848 ft | 499 kts | 76° |
| 2026-04-28 08:58 | -11.47108 | 100.49045 | 40855 ft | 499 kts | 76° |
| 2026-04-28 08:58 | -11.45630 | 100.55905 | 40855 ft | 499 kts | 79° |
| 2026-04-28 08:59 | -11.44370 | 100.62860 | 40854 ft | 499 kts | 80° |
| 2026-04-28 08:59 | -11.43099 | 100.69822 | 40859 ft | 499 kts | 79° |
| 2026-04-28 09:00 | -11.41786 | 100.76772 | 40846 ft | 499 kts | 79° |
| 2026-04-28 09:00 | -11.40453 | 100.83717 | 40854 ft | 499 kts | 79° |
| 2026-04-28 09:01 | -11.39166 | 100.90668 | 40853 ft | 499 kts | 82° |
| 2026-04-28 09:01 | -11.37927 | 100.97583 | 40860 ft | 499 kts | 81° |
| 2026-04-28 09:02 | -11.36626 | 101.04538 | 40858 ft | 499 kts | 81° |
| 2026-04-28 09:02 | -11.35289 | 101.11489 | 40863 ft | 499 kts | 81° |
| 2026-04-28 09:03 | -11.33942 | 101.18439 | 40847 ft | 499 kts | 81° |
| 2026-04-28 09:03 | -11.32597 | 101.25382 | 40858 ft | 499 kts | 81° |
| 2026-04-28 09:04 | -11.31258 | 101.32293 | 40859 ft | 499 kts | 81° |
| 2026-04-28 09:04 | -11.29911 | 101.39235 | 40845 ft | 499 kts | 81° |
| 2026-04-28 09:05 | -11.28561 | 101.46189 | 40847 ft | 499 kts | 81° |
| 2026-04-28 09:05 | -11.27212 | 101.53130 | 40857 ft | 499 kts | 81° |
| 2026-04-28 09:06 | -11.25860 | 101.60070 | 40864 ft | 499 kts | 81° |
| 2026-04-28 09:06 | -11.24517 | 101.66963 | 40848 ft | 499 kts | 81° |
| 2026-04-28 09:07 | -11.23164 | 101.73893 | 40863 ft | 499 kts | 81° |
| 2026-04-28 09:07 | -11.21809 | 101.80826 | 40845 ft | 499 kts | 81° |
| 2026-04-28 09:08 | -11.20450 | 101.87770 | 40848 ft | 499 kts | 81° |
| 2026-04-28 09:08 | -11.19091 | 101.94705 | 40861 ft | 499 kts | 81° |
| 2026-04-28 09:09 | -11.17739 | 102.01598 | 40860 ft | 499 kts | 81° |
| 2026-04-28 09:09 | -11.16377 | 102.08535 | 40858 ft | 499 kts | 81° |
| 2026-04-28 09:10 | -11.15013 | 102.15470 | 40847 ft | 498 kts | 80° |
| 2026-04-28 09:10 | -11.13649 | 102.22393 | 40863 ft | 499 kts | 81° |
| 2026-04-28 09:11 | -11.12292 | 102.29275 | 40856 ft | 498 kts | 81° |
| 2026-04-28 09:11 | -11.10924 | 102.36200 | 40856 ft | 499 kts | 81° |
| 2026-04-28 09:12 | -11.09556 | 102.43122 | 40849 ft | 499 kts | 80° |
| 2026-04-28 09:12 | -11.08186 | 102.50047 | 40853 ft | 498 kts | 80° |
| 2026-04-28 09:13 | -11.06824 | 102.56917 | 40851 ft | 498 kts | 80° |
| 2026-04-28 09:13 | -11.05453 | 102.63828 | 40849 ft | 498 kts | 80° |
| 2026-04-28 09:14 | -11.04081 | 102.70736 | 40860 ft | 498 kts | 80° |
| 2026-04-28 09:14 | -11.02704 | 102.77659 | 40850 ft | 497 kts | 80° |
| 2026-04-28 09:15 | -11.01332 | 102.84549 | 40848 ft | 496 kts | 80° |
| 2026-04-28 09:15 | -10.99971 | 102.91376 | 40851 ft | 495 kts | 80° |
| 2026-04-28 09:16 | -10.98595 | 102.98265 | 40854 ft | 496 kts | 80° |
| 2026-04-28 09:16 | -10.97222 | 103.05136 | 40861 ft | 495 kts | 80° |
| 2026-04-28 09:17 | -10.95843 | 103.12016 | 40847 ft | 495 kts | 80° |
| 2026-04-28 09:17 | -10.94474 | 103.18843 | 40856 ft | 495 kts | 80° |
| 2026-04-28 09:18 | -10.93094 | 103.25717 | 40855 ft | 495 kts | 80° |
| 2026-04-28 09:18 | -10.91713 | 103.32587 | 40847 ft | 495 kts | 79° |
| 2026-04-28 09:19 | -10.90331 | 103.39457 | 40852 ft | 495 kts | 79° |
| 2026-04-28 09:19 | -10.88945 | 103.46336 | 40855 ft | 495 kts | 79° |
| 2026-04-28 09:19 | -10.88251 | 103.49777 | 40674 ft | 495 kts | 80° |
| 2026-04-28 09:20 | -10.87561 | 103.53202 | 40469 ft | 493 kts | 79° |
| 2026-04-28 09:20 | -10.86183 | 103.60031 | 40064 ft | 495 kts | 79° |
| 2026-04-28 09:20 | -10.85490 | 103.63466 | 39653 ft | 495 kts | 79° |
| 2026-04-28 09:21 | -10.84795 | 103.66909 | 39181 ft | 496 kts | 79° |
| 2026-04-28 09:21 | -10.84107 | 103.70316 | 38717 ft | 497 kts | 79° |
| 2026-04-28 09:21 | -10.83409 | 103.73770 | 38215 ft | 499 kts | 79° |
| 2026-04-28 09:21 | -10.82710 | 103.77228 | 37681 ft | 500 kts | 79° |
| 2026-04-28 09:22 | -10.82007 | 103.80706 | 37165 ft | 502 kts | 79° |
| 2026-04-28 09:22 | -10.81303 | 103.84188 | 36654 ft | 504 kts | 79° |
| 2026-04-28 09:22 | -10.80595 | 103.87688 | 36156 ft | 506 kts | 79° |
| 2026-04-28 09:22 | -10.79885 | 103.91200 | 35675 ft | 507 kts | 80° |
| 2026-04-28 09:23 | -10.79173 | 103.94718 | 35191 ft | 509 kts | 80° |
| 2026-04-28 09:23 | -10.78458 | 103.98248 | 34727 ft | 511 kts | 80° |
| 2026-04-28 09:23 | -10.77737 | 104.01803 | 34258 ft | 513 kts | 80° |
| 2026-04-28 09:23 | -10.77015 | 104.05359 | 33800 ft | 514 kts | 80° |
| 2026-04-28 09:24 | -10.76296 | 104.08886 | 33300 ft | 516 kts | 80° |
| 2026-04-28 09:24 | -10.75565 | 104.12466 | 32792 ft | 516 kts | 80° |
| 2026-04-28 09:24 | -10.74836 | 104.16032 | 32302 ft | 514 kts | 79° |
| 2026-04-28 09:24 | -10.74108 | 104.19586 | 31818 ft | 511 kts | 80° |
| 2026-04-28 09:25 | -10.73384 | 104.23119 | 31344 ft | 508 kts | 79° |
| 2026-04-28 09:25 | -10.72665 | 104.26628 | 30864 ft | 504 kts | 79° |
| 2026-04-28 09:25 | -10.71952 | 104.30108 | 30428 ft | 501 kts | 79° |
| 2026-04-28 09:25 | -10.71244 | 104.33562 | 29969 ft | 498 kts | 79° |
| 2026-04-28 09:26 | -10.70540 | 104.36999 | 29447 ft | 495 kts | 79° |
| 2026-04-28 09:26 | -10.69838 | 104.40419 | 28927 ft | 491 kts | 79° |
| 2026-04-28 09:26 | -10.69144 | 104.43803 | 28417 ft | 487 kts | 80° |
| 2026-04-28 09:26 | -10.68453 | 104.47166 | 27916 ft | 483 kts | 80° |
| 2026-04-28 09:27 | -10.67098 | 104.53765 | 26760 ft | 475 kts | 80° |
| 2026-04-28 09:27 | -10.66424 | 104.57042 | 26168 ft | 471 kts | 80° |
| 2026-04-28 09:27 | -10.65754 | 104.60291 | 25589 ft | 466 kts | 80° |
| 2026-04-28 09:28 | -10.65092 | 104.63498 | 25020 ft | 461 kts | 81° |
| 2026-04-28 09:28 | -10.64438 | 104.66672 | 24463 ft | 457 kts | 80° |
| 2026-04-28 09:28 | -10.63789 | 104.69818 | 23920 ft | 452 kts | 81° |
| 2026-04-28 09:28 | -10.63151 | 104.72922 | 23377 ft | 447 kts | 81° |
| 2026-04-28 09:29 | -10.62514 | 104.76006 | 22729 ft | 442 kts | 81° |
| 2026-04-28 09:29 | -10.61884 | 104.79052 | 22102 ft | 437 kts | 81° |
| 2026-04-28 09:29 | -10.61271 | 104.82027 | 21496 ft | 432 kts | 80° |
| 2026-04-28 09:29 | -10.60658 | 104.84998 | 20894 ft | 427 kts | 81° |
| 2026-04-28 09:30 | -10.60052 | 104.87936 | 20305 ft | 422 kts | 80° |
| 2026-04-28 09:30 | -10.59451 | 104.90839 | 19725 ft | 417 kts | 81° |
| 2026-04-28 09:30 | -10.58857 | 104.93705 | 19157 ft | 411 kts | 80° |
| 2026-04-28 09:30 | -10.58270 | 104.96541 | 18598 ft | 406 kts | 80° |
| 2026-04-28 09:31 | -10.57689 | 104.99342 | 18034 ft | 401 kts | 80° |
| 2026-04-28 09:31 | -10.57125 | 105.02067 | 17407 ft | 396 kts | 80° |
| 2026-04-28 09:31 | -10.56553 | 105.04827 | 16781 ft | 392 kts | 80° |
| 2026-04-28 09:31 | -10.55995 | 105.07516 | 16178 ft | 387 kts | 80° |
| 2026-04-28 09:32 | -10.55443 | 105.10179 | 15584 ft | 382 kts | 80° |
| 2026-04-28 09:32 | -10.54906 | 105.12771 | 15011 ft | 378 kts | 80° |
| 2026-04-28 09:32 | -10.54367 | 105.15369 | 14438 ft | 374 kts | 80° |
| 2026-04-28 09:32 | -10.53833 | 105.17945 | 13874 ft | 369 kts | 80° |
| 2026-04-28 09:33 | -10.53305 | 105.20489 | 13259 ft | 365 kts | 80° |
| 2026-04-28 09:33 | -10.52783 | 105.23004 | 12649 ft | 362 kts | 80° |
| 2026-04-28 09:33 | -10.52266 | 105.25493 | 12038 ft | 358 kts | 79° |
| 2026-04-28 09:33 | -10.51759 | 105.27935 | 11441 ft | 355 kts | 79° |
| 2026-04-28 09:34 | -10.51251 | 105.30378 | 10853 ft | 351 kts | 79° |
| 2026-04-28 09:34 | -10.50747 | 105.32803 | 10282 ft | 347 kts | 79° |
| 2026-04-28 09:34 | -10.50249 | 105.35193 | 9721 ft | 343 kts | 79° |
| 2026-04-28 09:34 | -10.49757 | 105.37552 | 9090 ft | 339 kts | 79° |
| 2026-04-28 09:35 | -10.49229 | 105.39844 | 8477 ft | 334 kts | 77° |
| 2026-04-28 09:35 | -10.48447 | 105.42055 | 7882 ft | 331 kts | 68° |
| 2026-04-28 09:35 | -10.47409 | 105.44122 | 7285 ft | 327 kts | 58° |
| 2026-04-28 09:35 | -10.45858 | 105.45792 | 6710 ft | 326 kts | 40° |
| 2026-04-28 09:36 | -10.43945 | 105.47015 | 6137 ft | 324 kts | 32° |
| 2026-04-28 09:36 | -10.41977 | 105.48103 | 5530 ft | 321 kts | 31° |
| 2026-04-28 09:36 | -10.40018 | 105.49163 | 4942 ft | 318 kts | 31° |
| 2026-04-28 09:36 | -10.38068 | 105.50214 | 4343 ft | 315 kts | 31° |
| 2026-04-28 09:37 | -10.36138 | 105.51251 | 3739 ft | 313 kts | 31° |
| 2026-04-28 09:37 | -10.34213 | 105.52281 | 3145 ft | 311 kts | 31° |
| 2026-04-28 09:37 | -10.32308 | 105.53294 | 2640 ft | 305 kts | 31° |
| 2026-04-28 09:37 | -10.30469 | 105.54264 | 2422 ft | 288 kts | 31° |
| 2026-04-28 09:38 | -10.28750 | 105.55163 | 2395 ft | 267 kts | 31° |
| 2026-04-28 09:38 | -10.27187 | 105.56003 | 2387 ft | 247 kts | 35° |
| 2026-04-28 09:38 | -10.26092 | 105.57203 | 2392 ft | 223 kts | 68° |
| 2026-04-28 09:38 | -10.25765 | 105.58657 | 2381 ft | 203 kts | 88° |
| 2026-04-28 09:39 | -10.25704 | 105.60023 | 2404 ft | 184 kts | 91° |
| 2026-04-28 09:39 | -10.25674 | 105.61291 | 2392 ft | 178 kts | 91° |
| 2026-04-28 09:39 | -10.25661 | 105.62550 | 2375 ft | 178 kts | 89° |
| 2026-04-28 09:39 | -10.25678 | 105.63809 | 2375 ft | 177 kts | 89° |
| 2026-04-28 09:40 | -10.25694 | 105.65062 | 2378 ft | 178 kts | 90° |
| 2026-04-28 09:40 | -10.26006 | 105.66272 | 2390 ft | 182 kts | 121° |
| 2026-04-28 09:40 | -10.26969 | 105.67067 | 2393 ft | 184 kts | 153° |
| 2026-04-28 09:40 | -10.28163 | 105.67545 | 2370 ft | 185 kts | 157° |
| 2026-04-28 09:41 | -10.29440 | 105.67786 | 2390 ft | 188 kts | 173° |
| 2026-04-28 09:41 | -10.30744 | 105.67895 | 2335 ft | 189 kts | 170° |
| 2026-04-28 09:41 | -10.32033 | 105.68011 | 2204 ft | 179 kts | 171° |
| 2026-04-28 09:41 | -10.33206 | 105.68108 | 2248 ft | 160 kts | 171° |
| 2026-04-28 09:42 | -10.34279 | 105.68202 | 2376 ft | 152 kts | 171° |
| 2026-04-28 09:42 | -10.35305 | 105.68290 | 2402 ft | 144 kts | 173° |
| 2026-04-28 09:42 | -10.36284 | 105.68366 | 2391 ft | 136 kts | 176° |
| 2026-04-28 09:42 | -10.37222 | 105.68436 | 2304 ft | 135 kts | 174° |
| 2026-04-28 09:43 | -10.38185 | 105.68507 | 2230 ft | 143 kts | 175° |
| 2026-04-28 09:43 | -10.39179 | 105.68575 | 2084 ft | 141 kts | 175° |
| 2026-04-28 09:43 | -10.39821 | 105.68617 | 1935 ft | 139 kts | 176° |
| 2026-04-28 09:43 | -10.40783 | 105.68682 | 1630 ft | 139 kts | 172° |
| 2026-04-28 09:44 | -10.41740 | 105.68817 | 1397 ft | 137 kts | 173° |
| 2026-04-28 09:44 | -10.42662 | 105.68889 | 1134 ft | 127 kts | 178° |
| 2026-04-28 09:44 | -10.43503 | 105.68970 | 1067 ft | 125 kts | 175° |
| 2026-04-28 09:44 | -10.44406 | 105.69045 | 903 ft | 129 kts | 176° |
| 2026-04-28 09:45 | -10.45273 | 105.69098 | 956 ft | 132 kts | 179° |
| 2026-04-28 09:45 | -10.46367 | 105.69019 | 1492 ft | 178 kts | 189° |
| 2026-04-28 09:45 | -10.47554 | 105.68484 | 2089 ft | 191 kts | 219° |
| 2026-04-28 09:45 | -10.48263 | 105.67340 | 2355 ft | 198 kts | 253° |
| 2026-04-28 09:46 | -10.48257 | 105.65972 | 2396 ft | 199 kts | 293° |
| 2026-04-28 09:46 | -10.47385 | 105.64919 | 2398 ft | 194 kts | 337° |
| 2026-04-28 09:46 | -10.46136 | 105.64479 | 2392 ft | 193 kts | 355° |
| 2026-04-28 09:46 | -10.44791 | 105.64203 | 2377 ft | 194 kts | 356° |
| 2026-04-28 09:47 | -10.43474 | 105.63954 | 2392 ft | 195 kts | 356° |
| 2026-04-28 09:47 | -10.42130 | 105.63719 | 2380 ft | 193 kts | 358° |
| 2026-04-28 09:47 | -10.40868 | 105.63539 | 2315 ft | 174 kts | 7° |
| 2026-04-28 09:47 | -10.39865 | 105.63985 | 2208 ft | 150 kts | 54° |
| 2026-04-28 09:48 | -10.39383 | 105.64851 | 2101 ft | 133 kts | 78° |
| 2026-04-28 09:48 | -10.39108 | 105.65742 | 2115 ft | 132 kts | 81° |
| 2026-04-28 09:48 | -10.38870 | 105.66638 | 2111 ft | 131 kts | 82° |
| 2026-04-28 09:48 | -10.38702 | 105.67540 | 2112 ft | 130 kts | 95° |
| 2026-04-28 09:49 | -10.39122 | 105.68304 | 2079 ft | 131 kts | 144° |
| 2026-04-28 09:49 | -10.40049 | 105.68684 | 1896 ft | 151 kts | 168° |
| 2026-04-28 09:49 | -10.41104 | 105.68739 | 1464 ft | 155 kts | 175° |
| 2026-04-28 09:49 | -10.42175 | 105.68825 | 1274 ft | 156 kts | 170° |
| 2026-04-28 09:50 | -10.43215 | 105.68952 | 1091 ft | 142 kts | 173° |
| 2026-04-28 09:50 | -10.44182 | 105.69027 | 920 ft | 137 kts | 173° |
| 2026-04-28 09:50 | -10.45055 | 105.69100 | 861 ft | 97 kts | 176° |
| 2026-04-28 09:50 | -10.45504 | 105.69134 | 825 ft | 46 kts | 175° |
| 2026-04-28 09:51 | -10.45785 | 105.69154 | 814 ft | 35 kts | 175° |
| 2026-04-28 09:51 | -10.45920 | 105.69154 | 811 ft | 9 kts | 199° |
| 2026-04-28 09:51 | -10.45941 | 105.69164 | 810 ft | 3 kts | 108° |
| 2026-04-28 09:51 | -10.45928 | 105.69172 | 810 ft | 2 kts | 10° |
| 2026-04-28 09:52 | -10.45825 | 105.69168 | 815 ft | 26 kts | 358° |
| 2026-04-28 09:52 | -10.45597 | 105.69154 | 821 ft | 33 kts | 356° |
| 2026-04-28 09:52 | -10.45375 | 105.69133 | 831 ft | 32 kts | 353° |
| 2026-04-28 09:52 | -10.45147 | 105.69118 | 845 ft | 30 kts | 354° |
| 2026-04-28 09:53 | -10.45093 | 105.69036 | 848 ft | 11 kts | 270° |
| 2026-04-28 09:53 | -10.45104 | 105.68961 | 852 ft | 7 kts | 248° |
| 2026-04-28 09:53 | -10.45121 | 105.68942 | 842 ft | 0 kts | 221° |
| 2026-04-28 09:54 | -10.45125 | 105.68942 | 842 ft | 2 kts | 202° |
| 2026-04-28 09:54 | -10.45132 | 105.68945 | 852 ft | 0 kts | 160° |
| 2026-04-28 09:55 | -10.45137 | 105.68976 | 844 ft | 0 kts | 86° |